Time;durP1;ratioP1;P1;durP2;ratioP2;P2;SDS_P1;SDS_P2;PMS_P1;PMS_P2;Temp;Humidity;BMP_temperature;BMP_pressure;BME280_temperature;BME280_humidity;BME280_pressure;Samples;Min_cycle;Max_cycle;Signal;HPM_P1;HPM_P2
2022/04/10 00:04:36;;;;;;;;;;;;;;;3.28;65.81;97486.09;12836181;23;19920;-83
2022/04/10 00:09:58;;;;;;;;;;;;;;;3.34;65.53;97483.91;12880099;23;19910;-81
2022/04/10 00:15:20;;;;;;;;;;;;;;;3.34;65.35;97481.13;12834474;23;19904;-79
2022/04/10 00:20:43;;;;;;;;;;;;;;;3.35;66.09;97482.59;12900780;23;19904;-83
2022/04/10 00:26:04;;;;;;;;;;;;;;;3.36;65.61;97470.28;12859869;23;19949;-84
2022/04/10 00:31:26;;;;;;;;;;;;;;;3.32;64.96;97469.94;12880363;23;19920;-83
2022/04/10 00:36:47;;;;;;;;;;;;;;;3.31;66.06;97485.00;12854815;23;19927;-83
2022/04/10 00:42:09;;;;;;;;;;;;;;;3.28;65.77;97484.09;12901076;23;19927;-84
2022/04/10 00:47:31;;;;;;;;;;;;;;;3.23;65.91;97484.28;12875885;23;19904;-82
2022/04/10 00:52:57;;;;;;;;;;;;;;;3.19;66.68;97481.16;12835595;23;19968;-85
2022/04/10 00:58:19;;;;;;;;;;;;;;;3.16;66.56;97489.22;12901023;23;19910;-81
2022/04/10 01:03:41;;;;;;;;;;;;;;;3.13;66.55;97486.84;12879552;23;20257;-82
2022/04/10 01:09:03;;;;;;;;;;;;;;;3.07;66.97;97500.81;12879009;23;19911;-84
2022/04/10 01:14:25;;;;;;;;;;;;;;;3.06;66.34;97504.09;12834534;23;19915;-83
2022/04/10 01:19:47;;;;;;;;;;;;;;;3.02;66.81;97512.75;12858991;23;19904;-82
2022/04/10 01:25:09;;;;;;;;;;;;;;;3.03;66.75;97514.22;12833719;23;19972;-85
2022/04/10 01:30:34;;;;;;;;;;;;;;;3.00;66.42;97512.56;12879844;23;19904;-82
2022/04/10 01:35:56;;;;;;;;;;;;;;;3.03;66.42;97514.22;12857883;23;19912;-84
2022/04/10 01:41:20;;;;;;;;;;;;;;;3.15;66.64;97518.09;12880146;23;19908;-83
2022/04/10 01:46:41;;;;;;;;;;;;;;;3.13;66.74;97526.19;12833587;23;19961;-84
2022/04/10 01:52:05;;;;;;;;;;;;;;;3.05;66.45;97521.94;12878961;23;19920;-82
2022/04/10 01:57:27;;;;;;;;;;;;;;;2.99;66.68;97522.13;12852734;23;19934;-81
2022/04/10 02:02:49;;;;;;;;;;;;;;;2.94;66.75;97536.81;12832714;23;19904;-79
2022/04/10 02:08:13;;;;;;;;;;;;;;;2.87;66.47;97526.50;12808290;23;19904;-81
2022/04/10 02:13:38;;;;;;;;;;;;;;;2.82;66.97;97539.19;12815493;23;19912;-79
2022/04/10 02:19:01;;;;;;;;;;;;;;;2.79;66.88;97542.28;12815255;23;19904;-80
2022/04/10 02:24:23;;;;;;;;;;;;;;;2.71;66.34;97547.06;12769547;23;19905;-82
2022/04/10 02:29:45;;;;;;;;;;;;;;;2.70;66.88;97556.59;12813701;23;19920;-81
2022/04/10 02:35:07;;;;;;;;;;;;;;;2.66;67.45;97548.69;12834808;23;19928;-81
2022/04/10 02:40:29;;;;;;;;;;;;;;;2.65;67.05;97554.75;12790794;23;19920;-81
2022/04/10 02:45:50;;;;;;;;;;;;;;;2.56;67.30;97559.50;12795131;23;19927;-84
2022/04/10 02:51:12;;;;;;;;;;;;;;;2.50;67.65;97563.69;12771040;23;19920;-84
2022/04/10 02:56:37;;;;;;;;;;;;;;;2.48;67.43;97572.50;12795977;23;20149;-81
2022/04/10 03:01:58;;;;;;;;;;;;;;;2.43;67.53;97570.66;12815388;23;19920;-84
2022/04/10 03:07:21;;;;;;;;;;;;;;;2.41;67.77;97569.69;12771042;23;19927;-81
2022/04/10 03:35:06;;;;;;;;;;;;;;;2.19;66.95;97609.63;12471470;22;10699731;-80
2022/04/10 03:40:28;;;;;;;;;;;;;;;2.14;67.16;97613.25;12894175;22;19942;-81
2022/04/10 03:45:50;;;;;;;;;;;;;;;2.13;67.05;97617.31;12893758;23;19911;-79
2022/04/10 03:51:13;;;;;;;;;;;;;;;2.11;67.26;97620.56;12783108;22;19905;-81
2022/04/10 03:56:36;;;;;;;;;;;;;;;2.10;67.45;97627.34;12769520;23;19973;-79
2022/04/10 04:01:59;;;;;;;;;;;;;;;2.11;66.94;97639.13;12806858;22;19919;-80
2022/04/10 04:07:21;;;;;;;;;;;;;;;2.05;66.89;97628.25;12870552;22;19908;-77
2022/04/10 04:12:44;;;;;;;;;;;;;;;2.01;66.68;97631.34;12867370;22;19990;-83
2022/04/10 04:18:09;;;;;;;;;;;;;;;2.04;66.97;97654.31;12871832;22;19911;-81
2022/04/10 04:23:35;;;;;;;;;;;;;;;2.04;66.64;97648.81;12874630;22;19904;-82
2022/04/10 04:28:56;;;;;;;;;;;;;;;2.07;66.34;97658.75;12893560;22;19924;-80
2022/04/10 04:34:20;;;;;;;;;;;;;;;2.14;66.55;97665.59;12839259;22;19904;-82
2022/04/10 04:45:44;;;;;;;;;;;;;;;2.39;65.62;97680.44;12901889;23;19923;-81
2022/04/10 04:51:13;;;;;;;;;;;;;;;2.62;65.75;97683.34;12861305;22;19904;-84
2022/04/10 04:56:35;;;;;;;;;;;;;;;3.01;65.38;97687.03;12880494;22;19931;-81
2022/04/10 05:07:59;;;;;;;;;;;;;;;4.15;63.44;97703.84;12766459;23;19913;-81
2022/04/10 05:13:30;;;;;;;;;;;;;;;4.58;62.83;97707.69;12766674;23;19909;-79
2022/04/10 05:18:52;;;;;;;;;;;;;;;4.62;61.59;97719.09;12772527;23;20012;-82
2022/04/10 05:24:37;;;;;;;;;;;;;;;4.64;61.53;97721.34;12725290;23;19904;-77
2022/04/10 05:36:10;;;;;;;;;;;;;;;4.26;61.28;97746.97;12789795;22;19904;-83
2022/04/10 05:41:38;;;;;;;;;;;;;;;4.23;61.18;97745.28;12857124;22;19911;-79
2022/04/10 05:47:11;;;;;;;;;;;;;;;4.23;61.35;97734.97;12838538;22;19924;-83
2022/04/10 06:41:26;;;;;;;;;;;;;;;23.86;35.11;97779.31;12742244;23;19921;-90
2022/04/10 06:46:49;;;;;;;;;;;;;;;29.86;22.70;97789.63;12738513;23;19920;-89
2022/04/10 06:52:13;;;;;;;;;;;;;;;31.42;20.29;97789.34;12718026;23;19927;-89
2022/04/10 06:57:35;;;;;;;;;;;;;;;22.65;23.73;97801.22;12735881;23;19921;-90
2022/04/10 07:02:56;;;;;;;;;;;;;;;18.97;27.00;97812.06;12728679;23;19920;-89
2022/04/10 07:08:18;;;;;;;;;;;;;;;19.61;26.60;97807.22;12717680;23;19921;-90
2022/04/10 07:13:39;;;;;;;;;;;;;;;19.70;27.83;97805.38;12717795;23;19921;-90
2022/04/10 07:19:01;;;;;;;;;;;;;;;28.57;18.50;97815.44;12738090;23;19920;-91
2022/04/10 07:24:23;;;;;;;;;;;;;;;33.98;14.64;97818.38;12697584;23;20003;-91
2022/04/10 07:29:49;;;;;;;;;;;;;;;36.03;12.09;97821.22;12678291;23;20259;-91
2022/04/10 07:35:13;;;;;;;;;;;;;;;37.94;11.09;97821.53;12669469;23;19921;-89
2022/04/10 07:41:05;;;;;;;;;;;;;;;39.80;8.90;97825.66;12677723;23;19921;-91
2022/04/10 07:52:12;;;;;;;;;;;;;;;34.29;10.10;97821.22;12701168;23;20003;-93
2022/04/10 07:57:44;;;;;;;;;;;;;;;35.67;10.89;97813.66;12669055;23;20062;-92
2022/04/10 08:03:06;;;;;;;;;;;;;;;40.20;7.86;97834.63;12696299;23;20217;-93
2022/04/10 08:09:10;;;;;;;;;;;;;;;42.33;6.37;97824.53;12696449;23;20386;-92
2022/04/10 08:14:34;;;;;;;;;;;;;;;43.80;5.71;97827.91;12701929;23;19927;-92
2022/04/10 08:19:55;;;;;;;;;;;;;;;38.28;7.34;97843.41;12689751;23;20239;-91
2022/04/10 08:25:17;;;;;;;;;;;;;;;36.42;6.87;97831.53;12701015;23;19921;-92
2022/04/10 08:30:41;;;;;;;;;;;;;;;26.90;11.46;97828.84;12700936;23;19948;-92
2022/04/10 08:36:02;;;;;;;;;;;;;;;22.66;14.62;97816.91;12700192;23;19928;-91
2022/04/10 08:41:29;;;;;;;;;;;;;;;18.91;17.54;97823.16;12675555;23;20342;-92
2022/04/10 08:46:50;;;;;;;;;;;;;;;16.04;22.42;97833.72;12701306;23;19925;-92
2022/04/10 08:52:15;;;;;;;;;;;;;;;15.24;23.00;97843.13;12701143;23;19921;-89
2022/04/10 08:57:35;;;;;;;;;;;;;;;14.40;25.89;97862.56;12719596;23;19971;-89
2022/04/10 09:02:56;;;;;;;;;;;;;;;13.98;26.65;97882.03;12643318;23;19947;-90
2022/04/10 09:14:25;;;;;;;;;;;;;;;14.78;29.69;97889.22;12739515;23;20003;-89
2022/04/10 09:19:50;;;;;;;;;;;;;;;14.99;28.70;97874.16;12760462;23;19920;-89
2022/04/10 09:25:15;;;;;;;;;;;;;;;19.35;25.62;97872.13;12733671;23;19920;-89
2022/04/10 09:30:35;;;;;;;;;;;;;;;28.75;19.65;97864.19;12801144;23;20339;-91
2022/04/10 09:35:57;;;;;;;;;;;;;;;34.69;11.49;97851.31;12781287;23;19920;-91
2022/04/10 09:41:19;;;;;;;;;;;;;;;25.78;15.77;97865.28;12800702;23;20351;-89
2022/04/10 09:46:40;;;;;;;;;;;;;;;21.59;20.71;97866.94;12735326;23;19928;-89
2022/04/10 09:52:09;;;;;;;;;;;;;;;31.16;14.49;97865.34;12755661;23;19927;-93
2022/04/10 09:57:29;;;;;;;;;;;;;;;32.56;12.62;97862.56;12800549;23;19928;-92
2022/04/10 10:02:50;;;;;;;;;;;;;;;34.24;10.70;97863.31;12779869;23;19924;-92
2022/04/10 10:08:12;;;;;;;;;;;;;;;37.10;7.35;97864.75;12779696;23;19920;-93
2022/04/10 10:13:32;;;;;;;;;;;;;;;30.66;10.26;97852.97;12759360;23;20287;-90
2022/04/10 10:18:53;;;;;;;;;;;;;;;25.67;12.44;97858.69;12759502;23;19943;-84
2022/04/10 10:24:14;;;;;;;;;;;;;;;22.10;15.02;97863.31;12780546;23;20342;-86
2022/04/10 10:29:38;;;;;;;;;;;;;;;20.31;18.04;97849.78;12734643;23;19947;-80
2022/04/10 10:34:59;;;;;;;;;;;;;;;30.63;12.67;97851.53;12779563;23;19943;-88
2022/04/10 10:40:20;;;;;;;;;;;;;;;37.14;9.06;97847.84;12758446;23;20254;-79
2022/04/10 10:45:42;;;;;;;;;;;;;;;31.19;9.44;97855.94;12779626;23;19921;-79
2022/04/10 10:51:37;;;;;;;;;;;;;;;25.27;12.59;97859.72;12782452;23;19920;-76
2022/04/10 10:56:58;;;;;;;;;;;;;;;20.55;16.69;97883.84;12779298;23;19939;-77
2022/04/10 11:02:19;;;;;;;;;;;;;;;17.69;20.55;97867.16;12813895;23;19920;-76
2022/04/10 11:08:07;;;;;;;;;;;;;;;20.16;21.09;97862.78;12786657;23;20319;-76
2022/04/10 11:13:36;;;;;;;;;;;;;;;20.74;19.91;97848.97;12787783;23;19920;-77
2022/04/10 11:18:57;;;;;;;;;;;;;;;20.10;18.79;97859.78;12758619;23;19927;-77
2022/04/10 11:24:22;;;;;;;;;;;;;;;19.78;20.67;97870.03;12738633;23;19927;-77
2022/04/10 11:29:54;;;;;;;;;;;;;;;19.23;21.98;97874.53;12779155;23;19924;-77
2022/04/10 11:35:19;;;;;;;;;;;;;;;18.41;22.03;97870.72;12758711;23;19921;-77
2022/04/10 11:40:41;;;;;;;;;;;;;;;17.41;22.38;97861.03;12778133;23;19987;-77
2022/04/10 11:46:02;;;;;;;;;;;;;;;17.29;23.36;97862.63;12782799;23;19920;-77
2022/04/10 11:51:23;;;;;;;;;;;;;;;17.54;22.90;97867.91;12782865;23;19926;-77
2022/04/10 11:56:45;;;;;;;;;;;;;;;17.20;22.92;97861.53;12803638;23;19986;-77
2022/04/10 12:02:07;;;;;;;;;;;;;;;17.28;23.55;97850.59;12797090;23;19927;-76
2022/04/10 12:07:28;;;;;;;;;;;;;;;17.71;23.34;97852.41;12782669;23;19920;-79
2022/04/10 12:12:52;;;;;;;;;;;;;;;17.56;22.78;97847.50;12758038;23;20315;-82
2022/04/10 12:18:13;;;;;;;;;;;;;;;16.58;23.09;97849.59;12781925;23;19921;-78
2022/04/10 12:23:34;;;;;;;;;;;;;;;15.89;24.53;97845.63;12763785;23;20331;-78
2022/04/10 12:28:55;;;;;;;;;;;;;;;16.62;24.35;97849.06;12803514;23;20369;-78
2022/04/10 12:34:15;;;;;;;;;;;;;;;16.33;24.49;97849.13;12803404;23;19920;-78
2022/04/10 12:39:36;;;;;;;;;;;;;;;16.72;24.66;97846.75;12802547;23;19966;-83
2022/04/10 12:45:12;;;;;;;;;;;;;;;16.42;24.07;97836.88;12708214;23;19924;-85
2022/04/10 12:50:33;;;;;;;;;;;;;;;15.90;24.09;97836.56;12743487;23;19920;-79
2022/04/10 12:55:54;;;;;;;;;;;;;;;14.86;25.99;97855.91;12788255;23;19953;-81
2022/04/10 13:01:25;;;;;;;;;;;;;;;14.03;26.89;97860.56;12766893;23;19920;-78
2022/04/10 13:06:47;;;;;;;;;;;;;;;13.58;28.47;97860.09;12749075;23;19920;-79
2022/04/10 13:12:09;;;;;;;;;;;;;;;14.41;28.58;97847.91;12739012;23;19940;-77
2022/04/10 13:17:33;;;;;;;;;;;;;;;14.69;28.98;97845.19;12744956;23;20346;-76
2022/04/10 13:22:53;;;;;;;;;;;;;;;14.49;28.67;97873.66;12766538;23;19921;-76
2022/04/10 13:28:14;;;;;;;;;;;;;;;14.58;30.72;97875.56;12742329;23;20379;-74
2022/04/10 13:33:35;;;;;;;;;;;;;;;15.00;30.73;97870.00;12763395;23;19921;-75
2022/04/10 13:39:05;;;;;;;;;;;;;;;14.99;30.77;97868.53;12767885;23;19968;-76
2022/04/10 13:45:01;;;;;;;;;;;;;;;14.50;30.47;97872.31;12731474;23;19995;-76
2022/04/10 13:50:21;;;;;;;;;;;;;;;13.94;29.74;97859.38;12762289;23;19921;-76
2022/04/10 13:55:42;;;;;;;;;;;;;;;13.90;30.29;97869.66;12768693;23;19925;-76
2022/04/10 14:01:06;;;;;;;;;;;;;;;14.39;29.71;97873.06;12776711;23;20239;-79
2022/04/10 14:06:56;;;;;;;;;;;;;;;14.18;28.20;97862.78;12774458;23;19905;-84
2022/04/10 14:12:17;;;;;;;;;;;;;;;13.79;28.51;97870.41;12803519;23;20006;-82
2022/04/10 14:17:37;;;;;;;;;;;;;;;13.37;29.56;97872.22;12817622;23;19949;-84
2022/04/10 14:22:59;;;;;;;;;;;;;;;13.58;30.70;97885.34;12754095;23;19920;-77
2022/04/10 14:28:20;;;;;;;;;;;;;;;13.24;31.86;97890.41;12755340;23;19921;-77
2022/04/10 14:33:41;;;;;;;;;;;;;;;12.71;32.96;97900.47;12738471;23;19944;-78
2022/04/10 14:39:02;;;;;;;;;;;;;;;12.53;32.85;97911.25;12757863;23;19925;-78
2022/04/10 14:44:23;;;;;;;;;;;;;;;12.03;33.32;97901.13;12759715;23;19920;-77
2022/04/10 14:49:44;;;;;;;;;;;;;;;11.61;34.72;97904.66;12714932;23;19992;-78
2022/04/10 14:55:05;;;;;;;;;;;;;;;11.44;35.28;97930.81;12756469;23;19927;-78
2022/04/10 15:00:27;;;;;;;;;;;;;;;11.70;35.39;97929.75;12714215;23;19936;-77
2022/04/10 15:05:48;;;;;;;;;;;;;;;11.62;35.36;97917.31;12754288;23;19928;-77
2022/04/10 15:11:09;;;;;;;;;;;;;;;11.31;37.48;97931.31;12710863;23;19985;-80
2022/04/10 15:16:29;;;;;;;;;;;;;;;11.18;36.45;97949.31;12721597;23;19947;-76
2022/04/10 15:21:50;;;;;;;;;;;;;;;11.33;37.26;97953.81;12729037;23;19920;-77
2022/04/10 15:27:15;;;;;;;;;;;;;;;12.10;36.25;97953.34;12745356;23;19924;-81
2022/04/10 15:32:37;;;;;;;;;;;;;;;11.89;36.00;97936.59;12805399;23;19920;-88
2022/04/10 15:37:58;;;;;;;;;;;;;;;11.44;36.33;97942.72;12852549;23;19953;-87
2022/04/10 15:43:20;;;;;;;;;;;;;;;11.14;36.63;97949.78;12785101;23;19920;-78
2022/04/10 15:48:42;;;;;;;;;;;;;;;10.86;36.58;97931.06;12818479;23;19905;-81
2022/04/10 15:54:03;;;;;;;;;;;;;;;10.69;36.55;97934.78;12779831;23;19921;-80
2022/04/10 15:59:24;;;;;;;;;;;;;;;10.50;36.54;97952.31;12849576;23;19972;-81
2022/04/10 16:04:45;;;;;;;;;;;;;;;10.31;36.83;97936.31;12805028;23;19904;-80
2022/04/10 16:10:08;;;;;;;;;;;;;;;10.16;36.78;97930.31;12829815;23;19927;-79
2022/04/10 16:15:29;;;;;;;;;;;;;;;10.26;37.19;97933.84;12813930;23;19924;-77
2022/04/10 16:20:50;;;;;;;;;;;;;;;10.49;36.78;97942.47;12800066;23;19924;-78
2022/04/10 16:26:10;;;;;;;;;;;;;;;10.64;37.40;97929.53;12823521;23;19967;-76
2022/04/10 16:31:32;;;;;;;;;;;;;;;10.99;36.73;97932.63;12775160;23;19992;-78
2022/04/10 16:36:53;;;;;;;;;;;;;;;11.01;36.42;97953.06;12802966;23;20239;-75
2022/04/10 16:42:14;;;;;;;;;;;;;;;10.54;36.85;97960.97;12802182;23;19924;-77
2022/04/10 16:47:35;;;;;;;;;;;;;;;10.07;37.70;97972.88;12786913;23;19983;-76
2022/04/10 16:52:55;;;;;;;;;;;;;;;9.68;38.22;97983.97;12808074;23;19927;-80
2022/04/10 16:58:16;;;;;;;;;;;;;;;9.54;40.57;97980.13;12830544;23;19916;-80
2022/04/10 17:03:37;;;;;;;;;;;;;;;9.18;40.27;98004.66;12834367;23;19947;-84
2022/04/10 17:09:01;;;;;;;;;;;;;;;8.92;43.04;98030.44;12711414;23;20754;-74
2022/04/10 17:14:24;;;;;;;;;;;;;;;8.40;43.95;98018.66;12713716;23;20336;-77
2022/04/10 17:19:45;;;;;;;;;;;;;;;8.26;43.77;98021.75;12719524;23;20375;-75
2022/04/10 17:25:07;;;;;;;;;;;;;;;8.17;45.02;98002.94;12719834;23;20312;-76
2022/04/10 17:30:28;;;;;;;;;;;;;;;7.98;45.33;97992.38;12719134;23;19920;-75
2022/04/10 17:35:49;;;;;;;;;;;;;;;7.88;46.48;97990.81;12739378;23;19920;-76
2022/04/10 17:41:11;;;;;;;;;;;;;;;7.75;46.66;97981.50;12718689;23;19928;-76
2022/04/10 17:46:32;;;;;;;;;;;;;;;7.67;46.63;97983.59;12738177;23;19921;-79
2022/04/10 17:57:54;;;;;;;;;;;;;;;7.42;47.71;98000.28;12909447;23;19927;-82
2022/04/10 18:03:15;;;;;;;;;;;;;;;7.39;48.64;98006.25;12851587;23;19920;-78
2022/04/10 18:08:36;;;;;;;;;;;;;;;7.37;48.77;98014.41;12842349;23;19920;-78
2022/04/10 18:13:57;;;;;;;;;;;;;;;7.45;48.42;98012.31;12863609;23;19920;-78
2022/04/10 18:19:20;;;;;;;;;;;;;;;7.45;48.22;98017.88;12828012;23;19953;-80
2022/04/10 18:24:41;;;;;;;;;;;;;;;7.41;48.32;98034.91;12850432;23;19920;-80
2022/04/10 18:30:02;;;;;;;;;;;;;;;7.43;49.91;98042.69;12864542;23;20323;-81
2022/04/10 18:35:24;;;;;;;;;;;;;;;7.39;49.05;98040.31;12873822;23;19932;-79
2022/04/10 18:40:45;;;;;;;;;;;;;;;7.32;48.79;98054.97;12848848;23;20046;-79
2022/04/10 18:46:07;;;;;;;;;;;;;;;7.22;48.98;98065.22;12828194;23;19920;-80
2022/04/10 18:51:29;;;;;;;;;;;;;;;7.03;49.17;98068.47;12842012;23;20220;-77
2022/04/10 18:56:53;;;;;;;;;;;;;;;6.96;49.90;98074.09;12870000;23;19927;-77
2022/04/10 19:02:13;;;;;;;;;;;;;;;6.87;50.01;98069.88;12837855;23;19920;-77
2022/04/10 19:07:36;;;;;;;;;;;;;;;6.77;49.90;98063.44;12863021;23;19920;-78
2022/04/10 19:13:00;;;;;;;;;;;;;;;6.77;51.25;98061.41;12842499;23;19926;-77
2022/04/10 19:18:20;;;;;;;;;;;;;;;6.81;50.68;98058.25;12862160;23;20334;-78
2022/04/10 19:23:44;;;;;;;;;;;;;;;6.82;50.44;98052.13;12860763;23;19924;-77
2022/04/10 19:29:05;;;;;;;;;;;;;;;6.79;50.88;98063.63;12838643;23;19924;-77
2022/04/10 19:34:27;;;;;;;;;;;;;;;6.75;51.06;98054.94;12859869;23;19927;-78
2022/04/10 19:39:47;;;;;;;;;;;;;;;6.65;50.88;98062.38;12817171;23;20346;-77
2022/04/10 19:45:08;;;;;;;;;;;;;;;6.52;51.48;98063.34;12860025;23;19927;-77
2022/04/10 19:50:29;;;;;;;;;;;;;;;6.40;51.51;98060.25;12860764;23;19920;-79
2022/04/10 19:55:49;;;;;;;;;;;;;;;6.32;51.85;98059.53;12861078;23;19931;-78
2022/04/10 20:01:11;;;;;;;;;;;;;;;6.22;51.76;98066.94;12817053;23;20673;-77
2022/04/10 20:06:32;;;;;;;;;;;;;;;6.12;52.12;98063.28;12843818;23;19919;-79
2022/04/10 20:11:53;;;;;;;;;;;;;;;6.07;52.40;98070.47;12845167;23;20327;-78
2022/04/10 20:17:14;;;;;;;;;;;;;;;5.99;52.26;98067.00;12887116;23;19969;-77
2022/04/10 20:22:34;;;;;;;;;;;;;;;5.92;52.54;98074.00;12867626;23;19924;-77
2022/04/10 20:27:55;;;;;;;;;;;;;;;5.95;52.53;98080.47;12844930;23;19920;-78
2022/04/10 20:33:16;;;;;;;;;;;;;;;5.94;51.80;98076.22;12843561;23;19920;-78
2022/04/10 20:38:36;;;;;;;;;;;;;;;5.89;52.32;98072.34;12840811;23;19920;-78
2022/04/10 20:43:57;;;;;;;;;;;;;;;5.83;52.56;98079.34;12819761;23;19927;-78
2022/04/10 20:49:20;;;;;;;;;;;;;;;5.81;52.24;98090.97;12846108;23;20319;-78
2022/04/10 20:54:41;;;;;;;;;;;;;;;5.85;52.98;98094.13;12859393;23;20242;-78
2022/04/10 21:00:03;;;;;;;;;;;;;;;5.95;52.86;98108.91;12842446;23;19920;-78
2022/04/10 21:05:24;;;;;;;;;;;;;;;6.13;52.71;98106.31;12824805;23;19927;-77
2022/04/10 21:10:53;;;;;;;;;;;;;;;6.16;52.68;98107.97;12887134;23;19943;-78
2022/04/10 21:16:15;;;;;;;;;;;;;;;6.13;52.75;98114.63;12824205;23;19927;-78
2022/04/10 21:21:35;;;;;;;;;;;;;;;6.12;52.54;98127.03;12843525;23;20239;-78
2022/04/10 21:26:56;;;;;;;;;;;;;;;6.14;52.75;98132.75;12821852;23;19920;-78
2022/04/10 21:32:17;;;;;;;;;;;;;;;6.01;52.80;98136.44;12886617;23;19943;-78
2022/04/10 21:37:37;;;;;;;;;;;;;;;5.86;52.97;98142.69;12822023;23;19920;-78
2022/04/10 21:42:58;;;;;;;;;;;;;;;5.70;53.00;98144.72;12843245;23;19919;-78
2022/04/10 21:48:19;;;;;;;;;;;;;;;5.50;54.26;98161.47;12821616;23;19927;-78
2022/04/10 21:53:39;;;;;;;;;;;;;;;5.38;54.08;98155.53;12840942;23;19927;-78
2022/04/10 21:59:03;;;;;;;;;;;;;;;5.23;54.69;98163.81;12822294;23;19970;-78
2022/04/10 22:04:23;;;;;;;;;;;;;;;5.11;55.03;98164.13;12849327;23;19920;-78
2022/04/10 22:09:45;;;;;;;;;;;;;;;5.00;55.13;98161.69;12821739;23;19927;-78
2022/04/10 22:15:06;;;;;;;;;;;;;;;4.89;55.67;98168.28;12841631;23;19919;-78
2022/04/10 22:20:26;;;;;;;;;;;;;;;4.89;55.40;98165.50;12841586;23;19920;-78
2022/04/10 22:25:47;;;;;;;;;;;;;;;4.90;55.56;98177.31;12841789;23;19920;-78
2022/04/10 22:31:08;;;;;;;;;;;;;;;4.94;55.81;98174.22;12862420;23;20243;-78
2022/04/10 22:36:29;;;;;;;;;;;;;;;4.91;55.58;98170.50;12838995;23;19920;-78
2022/04/10 22:41:49;;;;;;;;;;;;;;;4.90;55.65;98180.06;12840739;23;19920;-78
2022/04/10 22:47:10;;;;;;;;;;;;;;;4.80;55.62;98179.09;12861911;23;19924;-78
2022/04/10 22:52:33;;;;;;;;;;;;;;;4.68;56.12;98186.97;12862381;23;19926;-78
2022/04/10 22:57:53;;;;;;;;;;;;;;;4.63;56.38;98190.63;12823338;23;19994;-78
2022/04/10 23:03:14;;;;;;;;;;;;;;;4.51;56.45;98189.44;12831682;23;19920;-78
2022/04/10 23:08:35;;;;;;;;;;;;;;;4.45;56.42;98202.69;12841643;23;19924;-78
2022/04/10 23:13:56;;;;;;;;;;;;;;;4.35;56.94;98196.91;12819670;23;19920;-78
2022/04/10 23:19:17;;;;;;;;;;;;;;;4.37;56.73;98190.84;12861540;23;19920;-78
2022/04/10 23:24:37;;;;;;;;;;;;;;;4.34;56.88;98187.13;12861108;23;19927;-78
2022/04/10 23:29:58;;;;;;;;;;;;;;;4.29;56.50;98197.03;12838360;23;19919;-78
2022/04/10 23:35:19;;;;;;;;;;;;;;;4.25;56.86;98195.91;12838562;23;20243;-78
2022/04/10 23:40:40;;;;;;;;;;;;;;;4.21;56.65;98201.75;12862093;23;19930;-78
2022/04/10 23:46:00;;;;;;;;;;;;;;;4.18;56.21;98197.34;12821575;23;19970;-78
2022/04/10 23:51:21;;;;;;;;;;;;;;;4.10;57.27;98202.03;12862781;23;19924;-78
2022/04/10 23:56:42;;;;;;;;;;;;;;;4.06;56.78;98206.44;12822539;23;19924;-78
